sensor_id;sensor_type;location;lat;lon;timestamp;pressure;altitude;pressure_sealevel;temperature
56286;BMP180;42191;47.562;9.686;2022-08-16T00:00:38;96375.00;;;20.60
56286;BMP180;42191;47.562;9.686;2022-08-16T00:03:05;96369.00;;;20.60
56286;BMP180;42191;47.562;9.686;2022-08-16T00:05:33;96366.00;;;20.60
56286;BMP180;42191;47.562;9.686;2022-08-16T00:07:59;96373.00;;;20.70
56286;BMP180;42191;47.562;9.686;2022-08-16T00:10:28;96374.00;;;20.60
56286;BMP180;42191;47.562;9.686;2022-08-16T00:12:54;96377.00;;;20.70
56286;BMP180;42191;47.562;9.686;2022-08-16T00:15:27;96380.00;;;20.60
56286;BMP180;42191;47.562;9.686;2022-08-16T00:17:55;96378.00;;;20.60
56286;BMP180;42191;47.562;9.686;2022-08-16T00:20:21;96371.00;;;20.60
56286;BMP180;42191;47.562;9.686;2022-08-16T00:22:49;96384.00;;;20.60
56286;BMP180;42191;47.562;9.686;2022-08-16T00:25:17;96391.00;;;20.60
56286;BMP180;42191;47.562;9.686;2022-08-16T00:27:44;96385.00;;;20.70
56286;BMP180;42191;47.562;9.686;2022-08-16T00:30:12;96385.00;;;20.70
56286;BMP180;42191;47.562;9.686;2022-08-16T00:32:41;96388.00;;;20.70
56286;BMP180;42191;47.562;9.686;2022-08-16T00:35:11;96393.00;;;20.70
56286;BMP180;42191;47.562;9.686;2022-08-16T00:37:37;96398.00;;;20.70
56286;BMP180;42191;47.562;9.686;2022-08-16T00:40:04;96396.00;;;20.70
56286;BMP180;42191;47.562;9.686;2022-08-16T00:42:32;96396.00;;;20.70
56286;BMP180;42191;47.562;9.686;2022-08-16T00:47:47;96391.00;;;20.70
56286;BMP180;42191;47.562;9.686;2022-08-16T00:50:13;96389.00;;;20.70
56286;BMP180;42191;47.562;9.686;2022-08-16T00:52:40;96391.00;;;20.70
56286;BMP180;42191;47.562;9.686;2022-08-16T00:55:07;96389.00;;;20.70
56286;BMP180;42191;47.562;9.686;2022-08-16T00:57:34;96384.00;;;20.70
56286;BMP180;42191;47.562;9.686;2022-08-16T01:00:03;96387.00;;;20.70
56286;BMP180;42191;47.562;9.686;2022-08-16T01:02:30;96389.00;;;20.70
56286;BMP180;42191;47.562;9.686;2022-08-16T01:04:56;96384.00;;;20.70
56286;BMP180;42191;47.562;9.686;2022-08-16T01:07:22;96386.00;;;20.70
56286;BMP180;42191;47.562;9.686;2022-08-16T01:09:48;96395.00;;;20.70
56286;BMP180;42191;47.562;9.686;2022-08-16T01:12:14;96385.00;;;20.60
56286;BMP180;42191;47.562;9.686;2022-08-16T01:14:50;96389.00;;;20.60
56286;BMP180;42191;47.562;9.686;2022-08-16T01:17:19;96395.00;;;20.60
56286;BMP180;42191;47.562;9.686;2022-08-16T01:19:50;96400.00;;;20.60
56286;BMP180;42191;47.562;9.686;2022-08-16T01:25:16;96404.00;;;20.60
56286;BMP180;42191;47.562;9.686;2022-08-16T01:27:46;96396.00;;;20.50
56286;BMP180;42191;47.562;9.686;2022-08-16T01:30:25;96402.00;;;20.50
56286;BMP180;42191;47.562;9.686;2022-08-16T01:32:54;96399.00;;;20.50
56286;BMP180;42191;47.562;9.686;2022-08-16T01:35:35;96399.00;;;20.50
56286;BMP180;42191;47.562;9.686;2022-08-16T01:38:30;96402.00;;;20.50
56286;BMP180;42191;47.562;9.686;2022-08-16T01:41:03;96399.00;;;20.50
56286;BMP180;42191;47.562;9.686;2022-08-16T01:43:32;96396.00;;;20.50
56286;BMP180;42191;47.562;9.686;2022-08-16T01:46:01;96403.00;;;20.40
56286;BMP180;42191;47.562;9.686;2022-08-16T01:48:30;96392.00;;;20.50
56286;BMP180;42191;47.562;9.686;2022-08-16T01:50:58;96391.00;;;20.50
56286;BMP180;42191;47.562;9.686;2022-08-16T01:53:24;96390.00;;;20.50
56286;BMP180;42191;47.562;9.686;2022-08-16T01:55:51;96398.00;;;20.40
56286;BMP180;42191;47.562;9.686;2022-08-16T01:58:18;96385.00;;;20.40
56286;BMP180;42191;47.562;9.686;2022-08-16T02:00:45;96381.00;;;20.40
56286;BMP180;42191;47.562;9.686;2022-08-16T02:03:11;96385.00;;;20.40
56286;BMP180;42191;47.562;9.686;2022-08-16T02:05:37;96389.00;;;20.40
56286;BMP180;42191;47.562;9.686;2022-08-16T02:08:06;96377.00;;;20.40
56286;BMP180;42191;47.562;9.686;2022-08-16T02:10:34;96377.00;;;20.40
56286;BMP180;42191;47.562;9.686;2022-08-16T02:13:01;96370.00;;;20.40
56286;BMP180;42191;47.562;9.686;2022-08-16T02:15:29;96373.00;;;20.40
56286;BMP180;42191;47.562;9.686;2022-08-16T02:17:58;96376.00;;;20.40
56286;BMP180;42191;47.562;9.686;2022-08-16T02:20:29;96375.00;;;20.30
56286;BMP180;42191;47.562;9.686;2022-08-16T02:22:58;96366.00;;;20.30
56286;BMP180;42191;47.562;9.686;2022-08-16T02:25:25;96363.00;;;20.30
56286;BMP180;42191;47.562;9.686;2022-08-16T02:27:53;96357.00;;;20.30
56286;BMP180;42191;47.562;9.686;2022-08-16T02:30:24;96368.00;;;20.30
56286;BMP180;42191;47.562;9.686;2022-08-16T02:32:51;96363.00;;;20.30
56286;BMP180;42191;47.562;9.686;2022-08-16T02:35:18;96362.00;;;20.30
56286;BMP180;42191;47.562;9.686;2022-08-16T02:37:44;96369.00;;;20.30
56286;BMP180;42191;47.562;9.686;2022-08-16T02:40:12;96363.00;;;20.30
56286;BMP180;42191;47.562;9.686;2022-08-16T02:42:42;96366.00;;;20.30
56286;BMP180;42191;47.562;9.686;2022-08-16T02:45:09;96349.00;;;20.30
56286;BMP180;42191;47.562;9.686;2022-08-16T02:47:35;96352.00;;;20.30
56286;BMP180;42191;47.562;9.686;2022-08-16T02:50:02;96353.00;;;20.30
56286;BMP180;42191;47.562;9.686;2022-08-16T02:52:28;96348.00;;;20.30
56286;BMP180;42191;47.562;9.686;2022-08-16T02:54:54;96332.00;;;20.30
56286;BMP180;42191;47.562;9.686;2022-08-16T02:57:20;96342.00;;;20.30
56286;BMP180;42191;47.562;9.686;2022-08-16T02:59:48;96326.00;;;20.30
56286;BMP180;42191;47.562;9.686;2022-08-16T03:02:15;96332.00;;;20.30
56286;BMP180;42191;47.562;9.686;2022-08-16T03:04:42;96330.00;;;20.20
56286;BMP180;42191;47.562;9.686;2022-08-16T03:07:08;96333.00;;;20.20
56286;BMP180;42191;47.562;9.686;2022-08-16T03:09:36;96331.00;;;20.20
56286;BMP180;42191;47.562;9.686;2022-08-16T03:12:03;96328.00;;;20.20
56286;BMP180;42191;47.562;9.686;2022-08-16T03:14:30;96338.00;;;20.20
56286;BMP180;42191;47.562;9.686;2022-08-16T03:16:57;96332.00;;;20.20
56286;BMP180;42191;47.562;9.686;2022-08-16T03:19:24;96328.00;;;20.20
56286;BMP180;42191;47.562;9.686;2022-08-16T03:21:50;96312.00;;;20.10
56286;BMP180;42191;47.562;9.686;2022-08-16T03:24:16;96317.00;;;20.10
56286;BMP180;42191;47.562;9.686;2022-08-16T03:26:43;96309.00;;;20.10
56286;BMP180;42191;47.562;9.686;2022-08-16T03:29:09;96305.00;;;20.10
56286;BMP180;42191;47.562;9.686;2022-08-16T03:31:37;96316.00;;;20.10
56286;BMP180;42191;47.562;9.686;2022-08-16T03:34:03;96328.00;;;20.10
56286;BMP180;42191;47.562;9.686;2022-08-16T03:36:29;96315.00;;;20.10
56286;BMP180;42191;47.562;9.686;2022-08-16T03:38:55;96317.00;;;20.10
56286;BMP180;42191;47.562;9.686;2022-08-16T03:41:21;96319.00;;;20.10
56286;BMP180;42191;47.562;9.686;2022-08-16T03:43:48;96315.00;;;20.10
56286;BMP180;42191;47.562;9.686;2022-08-16T03:46:14;96314.00;;;20.10
56286;BMP180;42191;47.562;9.686;2022-08-16T03:48:41;96320.00;;;20.10
56286;BMP180;42191;47.562;9.686;2022-08-16T03:51:10;96323.00;;;20.10
56286;BMP180;42191;47.562;9.686;2022-08-16T03:53:37;96316.00;;;20.10
56286;BMP180;42191;47.562;9.686;2022-08-16T03:56:04;96319.00;;;20.10
56286;BMP180;42191;47.562;9.686;2022-08-16T03:58:30;96315.00;;;20.10
56286;BMP180;42191;47.562;9.686;2022-08-16T04:00:56;96318.00;;;20.10
56286;BMP180;42191;47.562;9.686;2022-08-16T04:03:22;96313.00;;;20.10
56286;BMP180;42191;47.562;9.686;2022-08-16T04:05:49;96327.00;;;20.10
56286;BMP180;42191;47.562;9.686;2022-08-16T04:08:17;96324.00;;;20.10
56286;BMP180;42191;47.562;9.686;2022-08-16T04:10:45;96330.00;;;20.00
56286;BMP180;42191;47.562;9.686;2022-08-16T04:13:11;96336.00;;;20.00
56286;BMP180;42191;47.562;9.686;2022-08-16T04:15:38;96329.00;;;20.00
56286;BMP180;42191;47.562;9.686;2022-08-16T04:18:05;96331.00;;;20.00
56286;BMP180;42191;47.562;9.686;2022-08-16T04:20:32;96334.00;;;20.00
56286;BMP180;42191;47.562;9.686;2022-08-16T04:22:58;96339.00;;;20.00
56286;BMP180;42191;47.562;9.686;2022-08-16T04:25:24;96337.00;;;20.00
56286;BMP180;42191;47.562;9.686;2022-08-16T04:27:50;96331.00;;;20.00
56286;BMP180;42191;47.562;9.686;2022-08-16T04:30:18;96344.00;;;20.00
56286;BMP180;42191;47.562;9.686;2022-08-16T04:32:45;96339.00;;;20.00
56286;BMP180;42191;47.562;9.686;2022-08-16T04:35:15;96340.00;;;20.00
56286;BMP180;42191;47.562;9.686;2022-08-16T04:37:44;96355.00;;;20.00
56286;BMP180;42191;47.562;9.686;2022-08-16T04:40:10;96346.00;;;20.00
56286;BMP180;42191;47.562;9.686;2022-08-16T04:42:38;96352.00;;;20.00
56286;BMP180;42191;47.562;9.686;2022-08-16T04:45:07;96351.00;;;20.00
56286;BMP180;42191;47.562;9.686;2022-08-16T04:47:35;96349.00;;;20.10
56286;BMP180;42191;47.562;9.686;2022-08-16T04:50:03;96348.00;;;20.10
56286;BMP180;42191;47.562;9.686;2022-08-16T04:52:30;96347.00;;;20.10
56286;BMP180;42191;47.562;9.686;2022-08-16T04:54:56;96357.00;;;20.10
56286;BMP180;42191;47.562;9.686;2022-08-16T04:57:22;96349.00;;;20.10
56286;BMP180;42191;47.562;9.686;2022-08-16T04:59:48;96350.00;;;20.10
56286;BMP180;42191;47.562;9.686;2022-08-16T05:02:14;96351.00;;;20.20
56286;BMP180;42191;47.562;9.686;2022-08-16T05:04:40;96358.00;;;20.20
56286;BMP180;42191;47.562;9.686;2022-08-16T05:07:07;96351.00;;;20.20
56286;BMP180;42191;47.562;9.686;2022-08-16T05:09:33;96342.00;;;20.30
56286;BMP180;42191;47.562;9.686;2022-08-16T05:11:59;96348.00;;;20.30
56286;BMP180;42191;47.562;9.686;2022-08-16T05:14:25;96347.00;;;20.30
56286;BMP180;42191;47.562;9.686;2022-08-16T05:16:51;96343.00;;;20.40
56286;BMP180;42191;47.562;9.686;2022-08-16T05:19:17;96348.00;;;20.40
56286;BMP180;42191;47.562;9.686;2022-08-16T05:21:43;96348.00;;;20.40
56286;BMP180;42191;47.562;9.686;2022-08-16T05:24:09;96350.00;;;20.40
56286;BMP180;42191;47.562;9.686;2022-08-16T05:26:36;96354.00;;;20.50
56286;BMP180;42191;47.562;9.686;2022-08-16T05:29:03;96354.00;;;20.50
56286;BMP180;42191;47.562;9.686;2022-08-16T05:31:31;96353.00;;;20.60
56286;BMP180;42191;47.562;9.686;2022-08-16T05:34:01;96345.00;;;20.60
56286;BMP180;42191;47.562;9.686;2022-08-16T05:36:27;96344.00;;;20.60
56286;BMP180;42191;47.562;9.686;2022-08-16T05:38:53;96347.00;;;20.70
56286;BMP180;42191;47.562;9.686;2022-08-16T05:41:20;96350.00;;;20.70
56286;BMP180;42191;47.562;9.686;2022-08-16T05:43:46;96349.00;;;20.80
56286;BMP180;42191;47.562;9.686;2022-08-16T05:46:13;96350.00;;;20.80
56286;BMP180;42191;47.562;9.686;2022-08-16T05:48:42;96344.00;;;20.80
56286;BMP180;42191;47.562;9.686;2022-08-16T05:51:09;96334.00;;;20.90
56286;BMP180;42191;47.562;9.686;2022-08-16T05:53:35;96336.00;;;20.90
56286;BMP180;42191;47.562;9.686;2022-08-16T05:56:02;96340.00;;;21.00
56286;BMP180;42191;47.562;9.686;2022-08-16T05:58:28;96342.00;;;21.00
56286;BMP180;42191;47.562;9.686;2022-08-16T06:00:55;96349.00;;;21.00
56286;BMP180;42191;47.562;9.686;2022-08-16T06:03:21;96346.00;;;21.10
56286;BMP180;42191;47.562;9.686;2022-08-16T06:05:47;96343.00;;;21.10
56286;BMP180;42191;47.562;9.686;2022-08-16T06:08:13;96348.00;;;21.20
56286;BMP180;42191;47.562;9.686;2022-08-16T06:10:39;96340.00;;;21.20
56286;BMP180;42191;47.562;9.686;2022-08-16T06:13:05;96349.00;;;21.20
56286;BMP180;42191;47.562;9.686;2022-08-16T06:15:32;96344.00;;;21.30
56286;BMP180;42191;47.562;9.686;2022-08-16T06:17:58;96346.00;;;21.30
56286;BMP180;42191;47.562;9.686;2022-08-16T06:20:26;96346.00;;;21.40
56286;BMP180;42191;47.562;9.686;2022-08-16T06:22:54;96347.00;;;21.40
56286;BMP180;42191;47.562;9.686;2022-08-16T06:25:24;96356.00;;;21.50
56286;BMP180;42191;47.562;9.686;2022-08-16T06:27:51;96357.00;;;21.50
56286;BMP180;42191;47.562;9.686;2022-08-16T06:30:18;96358.00;;;21.60
56286;BMP180;42191;47.562;9.686;2022-08-16T06:32:44;96355.00;;;21.60
56286;BMP180;42191;47.562;9.686;2022-08-16T06:35:12;96350.00;;;21.70
56286;BMP180;42191;47.562;9.686;2022-08-16T06:37:40;96357.00;;;21.80
56286;BMP180;42191;47.562;9.686;2022-08-16T06:40:09;96352.00;;;21.80
56286;BMP180;42191;47.562;9.686;2022-08-16T06:42:35;96361.00;;;21.90
56286;BMP180;42191;47.562;9.686;2022-08-16T06:45:01;96354.00;;;21.90
56286;BMP180;42191;47.562;9.686;2022-08-16T06:47:28;96364.00;;;22.00
56286;BMP180;42191;47.562;9.686;2022-08-16T06:49:54;96352.00;;;22.10
56286;BMP180;42191;47.562;9.686;2022-08-16T06:52:20;96358.00;;;22.10
56286;BMP180;42191;47.562;9.686;2022-08-16T06:54:46;96355.00;;;22.20
56286;BMP180;42191;47.562;9.686;2022-08-16T06:57:14;96356.00;;;22.30
56286;BMP180;42191;47.562;9.686;2022-08-16T06:59:41;96361.00;;;22.30
56286;BMP180;42191;47.562;9.686;2022-08-16T07:02:07;96353.00;;;22.30
56286;BMP180;42191;47.562;9.686;2022-08-16T07:04:34;96355.00;;;22.40
56286;BMP180;42191;47.562;9.686;2022-08-16T07:07:02;96352.00;;;22.50
56286;BMP180;42191;47.562;9.686;2022-08-16T07:09:30;96351.00;;;22.50
56286;BMP180;42191;47.562;9.686;2022-08-16T07:11:57;96357.00;;;22.60
56286;BMP180;42191;47.562;9.686;2022-08-16T07:14:23;96358.00;;;22.60
56286;BMP180;42191;47.562;9.686;2022-08-16T07:16:49;96355.00;;;22.70
56286;BMP180;42191;47.562;9.686;2022-08-16T07:19:15;96361.00;;;22.70
56286;BMP180;42191;47.562;9.686;2022-08-16T07:21:42;96363.00;;;22.80
56286;BMP180;42191;47.562;9.686;2022-08-16T07:24:09;96356.00;;;22.80
56286;BMP180;42191;47.562;9.686;2022-08-16T07:26:35;96363.00;;;22.90
56286;BMP180;42191;47.562;9.686;2022-08-16T07:29:01;96364.00;;;22.90
56286;BMP180;42191;47.562;9.686;2022-08-16T07:31:28;96362.00;;;23.00
56286;BMP180;42191;47.562;9.686;2022-08-16T07:33:54;96360.00;;;23.00
56286;BMP180;42191;47.562;9.686;2022-08-16T07:36:20;96364.00;;;23.10
56286;BMP180;42191;47.562;9.686;2022-08-16T07:38:47;96360.00;;;23.20
56286;BMP180;42191;47.562;9.686;2022-08-16T07:41:13;96352.00;;;23.20
56286;BMP180;42191;47.562;9.686;2022-08-16T07:43:39;96362.00;;;23.30
56286;BMP180;42191;47.562;9.686;2022-08-16T07:46:06;96358.00;;;23.30
56286;BMP180;42191;47.562;9.686;2022-08-16T07:48:32;96356.00;;;23.40
56286;BMP180;42191;47.562;9.686;2022-08-16T07:50:58;96361.00;;;23.50
56286;BMP180;42191;47.562;9.686;2022-08-16T07:53:28;96359.00;;;23.50
56286;BMP180;42191;47.562;9.686;2022-08-16T07:55:55;96366.00;;;23.60
56286;BMP180;42191;47.562;9.686;2022-08-16T07:58:21;96364.00;;;23.60
56286;BMP180;42191;47.562;9.686;2022-08-16T08:00:47;96372.00;;;23.70
56286;BMP180;42191;47.562;9.686;2022-08-16T08:03:13;96372.00;;;23.80
56286;BMP180;42191;47.562;9.686;2022-08-16T08:05:39;96369.00;;;23.90
56286;BMP180;42191;47.562;9.686;2022-08-16T08:08:06;96384.00;;;23.90
56286;BMP180;42191;47.562;9.686;2022-08-16T08:10:32;96366.00;;;24.00
56286;BMP180;42191;47.562;9.686;2022-08-16T08:12:58;96372.00;;;24.10
56286;BMP180;42191;47.562;9.686;2022-08-16T08:15:24;96377.00;;;24.10
56286;BMP180;42191;47.562;9.686;2022-08-16T08:17:51;96374.00;;;24.20
56286;BMP180;42191;47.562;9.686;2022-08-16T08:20:19;96381.00;;;24.20
56286;BMP180;42191;47.562;9.686;2022-08-16T08:22:47;96386.00;;;24.30
56286;BMP180;42191;47.562;9.686;2022-08-16T08:25:14;96381.00;;;24.30
56286;BMP180;42191;47.562;9.686;2022-08-16T08:27:40;96380.00;;;24.40
56286;BMP180;42191;47.562;9.686;2022-08-16T08:30:08;96386.00;;;24.40
56286;BMP180;42191;47.562;9.686;2022-08-16T08:32:35;96381.00;;;24.50
56286;BMP180;42191;47.562;9.686;2022-08-16T08:35:01;96371.00;;;24.50
56286;BMP180;42191;47.562;9.686;2022-08-16T08:37:27;96381.00;;;24.60
56286;BMP180;42191;47.562;9.686;2022-08-16T08:39:54;96375.00;;;24.70
56286;BMP180;42191;47.562;9.686;2022-08-16T08:42:20;96379.00;;;24.70
56286;BMP180;42191;47.562;9.686;2022-08-16T08:44:46;96387.00;;;24.80
56286;BMP180;42191;47.562;9.686;2022-08-16T08:47:12;96376.00;;;24.80
56286;BMP180;42191;47.562;9.686;2022-08-16T08:49:39;96378.00;;;24.90
56286;BMP180;42191;47.562;9.686;2022-08-16T08:52:05;96390.00;;;24.90
56286;BMP180;42191;47.562;9.686;2022-08-16T08:54:31;96378.00;;;25.00
56286;BMP180;42191;47.562;9.686;2022-08-16T08:56:58;96386.00;;;25.00
56286;BMP180;42191;47.562;9.686;2022-08-16T08:59:24;96379.00;;;25.10
56286;BMP180;42191;47.562;9.686;2022-08-16T09:01:51;96380.00;;;25.10
56286;BMP180;42191;47.562;9.686;2022-08-16T09:04:17;96385.00;;;25.20
56286;BMP180;42191;47.562;9.686;2022-08-16T09:06:44;96390.00;;;25.20
56286;BMP180;42191;47.562;9.686;2022-08-16T09:09:10;96384.00;;;25.30
56286;BMP180;42191;47.562;9.686;2022-08-16T09:11:37;96388.00;;;25.30
56286;BMP180;42191;47.562;9.686;2022-08-16T09:14:04;96385.00;;;25.40
56286;BMP180;42191;47.562;9.686;2022-08-16T09:16:30;96381.00;;;25.40
56286;BMP180;42191;47.562;9.686;2022-08-16T09:18:58;96382.00;;;25.50
56286;BMP180;42191;47.562;9.686;2022-08-16T09:21:25;96377.00;;;25.60
56286;BMP180;42191;47.562;9.686;2022-08-16T09:23:51;96375.00;;;25.60
56286;BMP180;42191;47.562;9.686;2022-08-16T09:26:17;96384.00;;;25.70
56286;BMP180;42191;47.562;9.686;2022-08-16T09:28:44;96379.00;;;25.70
56286;BMP180;42191;47.562;9.686;2022-08-16T09:31:12;96373.00;;;25.80
56286;BMP180;42191;47.562;9.686;2022-08-16T09:33:39;96366.00;;;25.80
56286;BMP180;42191;47.562;9.686;2022-08-16T09:36:06;96376.00;;;25.90
56286;BMP180;42191;47.562;9.686;2022-08-16T09:38:33;96367.00;;;25.90
56286;BMP180;42191;47.562;9.686;2022-08-16T09:41:05;96378.00;;;26.00
56286;BMP180;42191;47.562;9.686;2022-08-16T09:43:33;96373.00;;;26.00
56286;BMP180;42191;47.562;9.686;2022-08-16T09:46:01;96368.00;;;26.10
56286;BMP180;42191;47.562;9.686;2022-08-16T09:48:27;96372.00;;;26.10
56286;BMP180;42191;47.562;9.686;2022-08-16T09:50:54;96368.00;;;26.20
56286;BMP180;42191;47.562;9.686;2022-08-16T09:53:21;96363.00;;;26.20
56286;BMP180;42191;47.562;9.686;2022-08-16T09:55:51;96369.00;;;26.30
56286;BMP180;42191;47.562;9.686;2022-08-16T09:58:20;96362.00;;;26.30
56286;BMP180;42191;47.562;9.686;2022-08-16T10:00:47;96356.00;;;26.40
56286;BMP180;42191;47.562;9.686;2022-08-16T10:03:16;96362.00;;;26.40
56286;BMP180;42191;47.562;9.686;2022-08-16T10:05:43;96348.00;;;26.50
56286;BMP180;42191;47.562;9.686;2022-08-16T10:08:09;96367.00;;;26.60
56286;BMP180;42191;47.562;9.686;2022-08-16T10:10:36;96356.00;;;26.60
56286;BMP180;42191;47.562;9.686;2022-08-16T10:13:06;96354.00;;;26.70
56286;BMP180;42191;47.562;9.686;2022-08-16T10:15:46;96365.00;;;26.70
56286;BMP180;42191;47.562;9.686;2022-08-16T10:18:12;96357.00;;;26.80
56286;BMP180;42191;47.562;9.686;2022-08-16T10:20:42;96360.00;;;26.80
56286;BMP180;42191;47.562;9.686;2022-08-16T10:23:11;96359.00;;;26.90
56286;BMP180;42191;47.562;9.686;2022-08-16T10:25:41;96365.00;;;26.90
56286;BMP180;42191;47.562;9.686;2022-08-16T10:28:08;96362.00;;;26.90
56286;BMP180;42191;47.562;9.686;2022-08-16T10:30:36;96360.00;;;26.90
56286;BMP180;42191;47.562;9.686;2022-08-16T10:33:02;96363.00;;;27.00
56286;BMP180;42191;47.562;9.686;2022-08-16T10:35:29;96372.00;;;27.00
56286;BMP180;42191;47.562;9.686;2022-08-16T10:37:55;96369.00;;;27.00
56286;BMP180;42191;47.562;9.686;2022-08-16T10:40:24;96362.00;;;27.00
56286;BMP180;42191;47.562;9.686;2022-08-16T10:42:50;96365.00;;;27.10
56286;BMP180;42191;47.562;9.686;2022-08-16T10:45:17;96364.00;;;27.10
56286;BMP180;42191;47.562;9.686;2022-08-16T10:47:43;96357.00;;;27.10
56286;BMP180;42191;47.562;9.686;2022-08-16T10:50:10;96355.00;;;27.20
56286;BMP180;42191;47.562;9.686;2022-08-16T10:52:36;96356.00;;;27.20
56286;BMP180;42191;47.562;9.686;2022-08-16T10:55:04;96361.00;;;27.30
56286;BMP180;42191;47.562;9.686;2022-08-16T10:57:33;96357.00;;;27.40
56286;BMP180;42191;47.562;9.686;2022-08-16T10:59:59;96355.00;;;27.40
56286;BMP180;42191;47.562;9.686;2022-08-16T11:02:26;96350.00;;;27.50
56286;BMP180;42191;47.562;9.686;2022-08-16T11:04:52;96355.00;;;27.60
56286;BMP180;42191;47.562;9.686;2022-08-16T11:07:19;96363.00;;;27.70
56286;BMP180;42191;47.562;9.686;2022-08-16T11:09:45;96368.00;;;27.80
56286;BMP180;42191;47.562;9.686;2022-08-16T11:12:12;96366.00;;;27.90
56286;BMP180;42191;47.562;9.686;2022-08-16T11:14:38;96362.00;;;28.00
56286;BMP180;42191;47.562;9.686;2022-08-16T11:17:05;96362.00;;;28.00
56286;BMP180;42191;47.562;9.686;2022-08-16T11:19:32;96368.00;;;28.10
56286;BMP180;42191;47.562;9.686;2022-08-16T11:21:59;96374.00;;;28.20
56286;BMP180;42191;47.562;9.686;2022-08-16T11:24:26;96362.00;;;28.30
56286;BMP180;42191;47.562;9.686;2022-08-16T11:26:52;96368.00;;;28.40
56286;BMP180;42191;47.562;9.686;2022-08-16T11:29:19;96369.00;;;28.50
56286;BMP180;42191;47.562;9.686;2022-08-16T11:31:45;96359.00;;;28.60
56286;BMP180;42191;47.562;9.686;2022-08-16T11:34:13;96361.00;;;28.70
56286;BMP180;42191;47.562;9.686;2022-08-16T11:36:39;96358.00;;;28.80
56286;BMP180;42191;47.562;9.686;2022-08-16T11:39:05;96356.00;;;28.90
56286;BMP180;42191;47.562;9.686;2022-08-16T11:41:31;96360.00;;;29.00
56286;BMP180;42191;47.562;9.686;2022-08-16T11:44:01;96365.00;;;29.00
56286;BMP180;42191;47.562;9.686;2022-08-16T11:46:28;96359.00;;;29.10
56286;BMP180;42191;47.562;9.686;2022-08-16T11:48:54;96358.00;;;29.20
56286;BMP180;42191;47.562;9.686;2022-08-16T11:51:20;96353.00;;;29.20
56286;BMP180;42191;47.562;9.686;2022-08-16T11:53:46;96356.00;;;29.30
56286;BMP180;42191;47.562;9.686;2022-08-16T11:56:12;96352.00;;;29.40
56286;BMP180;42191;47.562;9.686;2022-08-16T11:58:38;96357.00;;;29.40
56286;BMP180;42191;47.562;9.686;2022-08-16T12:01:05;96353.00;;;29.50
56286;BMP180;42191;47.562;9.686;2022-08-16T12:03:32;96352.00;;;29.60
56286;BMP180;42191;47.562;9.686;2022-08-16T12:06:02;96349.00;;;29.60
56286;BMP180;42191;47.562;9.686;2022-08-16T12:08:30;96354.00;;;29.70
56286;BMP180;42191;47.562;9.686;2022-08-16T12:10:56;96343.00;;;29.70
56286;BMP180;42191;47.562;9.686;2022-08-16T12:13:25;96350.00;;;29.80
56286;BMP180;42191;47.562;9.686;2022-08-16T12:15:51;96354.00;;;29.80
56286;BMP180;42191;47.562;9.686;2022-08-16T12:18:17;96354.00;;;29.90
56286;BMP180;42191;47.562;9.686;2022-08-16T12:20:44;96353.00;;;29.90
56286;BMP180;42191;47.562;9.686;2022-08-16T12:23:11;96357.00;;;30.00
56286;BMP180;42191;47.562;9.686;2022-08-16T12:25:37;96342.00;;;30.00
56286;BMP180;42191;47.562;9.686;2022-08-16T12:28:07;96353.00;;;30.10
56286;BMP180;42191;47.562;9.686;2022-08-16T12:30:38;96363.00;;;30.10
56286;BMP180;42191;47.562;9.686;2022-08-16T12:33:08;96353.00;;;30.10
56286;BMP180;42191;47.562;9.686;2022-08-16T12:35:36;96358.00;;;30.10
56286;BMP180;42191;47.562;9.686;2022-08-16T12:38:03;96349.00;;;30.10
56286;BMP180;42191;47.562;9.686;2022-08-16T12:40:35;96358.00;;;30.10
56286;BMP180;42191;47.562;9.686;2022-08-16T12:43:04;96353.00;;;30.10
56286;BMP180;42191;47.562;9.686;2022-08-16T12:45:44;96348.00;;;30.20
56286;BMP180;42191;47.562;9.686;2022-08-16T12:48:11;96343.00;;;30.20
56286;BMP180;42191;47.562;9.686;2022-08-16T12:50:56;96345.00;;;30.30
56286;BMP180;42191;47.562;9.686;2022-08-16T12:53:23;96338.00;;;30.30
56286;BMP180;42191;47.562;9.686;2022-08-16T12:55:50;96339.00;;;30.30
56286;BMP180;42191;47.562;9.686;2022-08-16T12:58:17;96327.00;;;30.40
56286;BMP180;42191;47.562;9.686;2022-08-16T13:00:45;96337.00;;;30.40
56286;BMP180;42191;47.562;9.686;2022-08-16T13:03:11;96329.00;;;30.50
56286;BMP180;42191;47.562;9.686;2022-08-16T13:05:38;96328.00;;;30.50
56286;BMP180;42191;47.562;9.686;2022-08-16T13:08:09;96334.00;;;30.50
56286;BMP180;42191;47.562;9.686;2022-08-16T13:10:35;96320.00;;;30.50
56286;BMP180;42191;47.562;9.686;2022-08-16T13:13:04;96314.00;;;30.60
56286;BMP180;42191;47.562;9.686;2022-08-16T13:15:30;96321.00;;;30.60
56286;BMP180;42191;47.562;9.686;2022-08-16T13:17:56;96319.00;;;30.60
56286;BMP180;42191;47.562;9.686;2022-08-16T13:20:25;96310.00;;;30.70
56286;BMP180;42191;47.562;9.686;2022-08-16T13:23:00;96311.00;;;31.00
56286;BMP180;42191;47.562;9.686;2022-08-16T13:25:28;96304.00;;;31.40
56286;BMP180;42191;47.562;9.686;2022-08-16T13:27:54;96314.00;;;31.90
56286;BMP180;42191;47.562;9.686;2022-08-16T13:30:21;96309.00;;;32.40
56286;BMP180;42191;47.562;9.686;2022-08-16T13:32:47;96301.00;;;33.00
56286;BMP180;42191;47.562;9.686;2022-08-16T13:35:15;96302.00;;;33.60
56286;BMP180;42191;47.562;9.686;2022-08-16T13:37:41;96301.00;;;34.20
56286;BMP180;42191;47.562;9.686;2022-08-16T13:40:08;96300.00;;;34.90
56286;BMP180;42191;47.562;9.686;2022-08-16T13:42:34;96311.00;;;35.40
56286;BMP180;42191;47.562;9.686;2022-08-16T13:45:01;96302.00;;;35.90
56286;BMP180;42191;47.562;9.686;2022-08-16T13:47:27;96296.00;;;36.50
56286;BMP180;42191;47.562;9.686;2022-08-16T13:49:53;96292.00;;;37.00
56286;BMP180;42191;47.562;9.686;2022-08-16T13:52:20;96284.00;;;37.60
56286;BMP180;42191;47.562;9.686;2022-08-16T13:54:47;96293.00;;;38.10
56286;BMP180;42191;47.562;9.686;2022-08-16T13:57:14;96298.00;;;38.60
56286;BMP180;42191;47.562;9.686;2022-08-16T13:59:40;96291.00;;;39.00
56286;BMP180;42191;47.562;9.686;2022-08-16T14:02:07;96296.00;;;39.30
56286;BMP180;42191;47.562;9.686;2022-08-16T14:04:38;96298.00;;;39.60
56286;BMP180;42191;47.562;9.686;2022-08-16T14:07:07;96297.00;;;39.80
56286;BMP180;42191;47.562;9.686;2022-08-16T14:09:34;96300.00;;;40.00
56286;BMP180;42191;47.562;9.686;2022-08-16T14:12:04;96294.00;;;40.20
56286;BMP180;42191;47.562;9.686;2022-08-16T14:14:31;96297.00;;;40.40